createdAt,value
2023-05-17T00:01:22.038Z,102942.56
2023-05-17T00:03:50.242Z,102938.34
2023-05-17T00:06:18.470Z,102940.16
2023-05-17T00:08:46.826Z,102944.53
2023-05-17T00:11:15.293Z,102940.47
2023-05-17T00:13:43.566Z,102929.97
2023-05-17T00:16:13.337Z,102938.06
2023-05-17T00:18:41.668Z,102939.88
2023-05-17T00:21:10.068Z,102938.34
2023-05-17T00:23:38.345Z,102948.38
2023-05-17T00:26:06.656Z,102946.97
2023-05-17T00:28:34.869Z,102943.06
2023-05-17T00:31:03.289Z,102943.06
2023-05-17T00:33:33.148Z,102946.94
2023-05-17T00:36:01.494Z,102942.06
2023-05-17T00:38:29.753Z,102941.06
2023-05-17T00:40:58.015Z,102943.00
2023-05-17T00:43:26.509Z,102941.22
2023-05-17T00:45:54.881Z,102936.31
2023-05-17T00:48:25.725Z,102937.66
2023-05-17T00:50:56.964Z,102945.63
2023-05-17T00:53:25.514Z,102944.91
2023-05-17T00:55:55.038Z,102943.25
2023-05-17T00:58:24.271Z,102945.19
2023-05-17T01:00:52.697Z,102952.44
2023-05-17T01:03:22.761Z,102954.34
2023-05-17T01:05:52.143Z,102956.56
2023-05-17T01:08:22.245Z,102948.91
2023-05-17T01:10:58.520Z,102951.81
2023-05-17T01:13:35.400Z,102951.94
2023-05-17T01:16:12.024Z,102955.69
2023-05-17T01:18:45.541Z,102951.22
2023-05-17T01:21:29.756Z,102954.72
2023-05-17T01:24:15.293Z,102950.38
2023-05-17T01:26:48.577Z,102942.59
2023-05-17T01:29:18.871Z,102948.97
2023-05-17T01:31:48.181Z,102945.63
2023-05-17T01:34:25.580Z,102948.41
2023-05-17T01:36:53.948Z,102948.50
2023-05-17T01:39:22.485Z,102946.81
2023-05-17T01:41:59.051Z,102946.13
2023-05-17T01:44:34.697Z,102951.66
2023-05-17T01:47:10.759Z,102952.06
2023-05-17T01:49:41.780Z,102947.59
2023-05-17T01:52:15.374Z,102946.91
2023-05-17T01:54:48.894Z,102940.88
2023-05-17T01:57:22.106Z,102942.44
2023-05-17T01:59:53.110Z,102943.28
2023-05-17T02:02:22.672Z,102949.56
2023-05-17T02:04:51.691Z,102947.16
2023-05-17T02:07:19.982Z,102937.25
2023-05-17T02:09:48.256Z,102942.56
2023-05-17T02:12:16.642Z,102938.53
2023-05-17T02:14:46.183Z,102942.84
2023-05-17T02:17:14.972Z,102948.25
2023-05-17T02:19:43.213Z,102943.09
2023-05-17T02:22:11.501Z,102951.16
2023-05-17T02:24:39.846Z,102950.34
2023-05-17T02:27:10.911Z,102946.97
2023-05-17T02:29:39.040Z,102948.63
2023-05-17T02:32:09.462Z,102944.31
2023-05-17T02:34:37.665Z,102946.25
2023-05-17T02:37:06.632Z,102946.25
2023-05-17T02:39:35.011Z,102948.19
2023-05-17T02:42:03.257Z,102935.09
2023-05-17T02:44:31.446Z,102937.88
2023-05-17T02:46:59.707Z,102939.78
2023-05-17T02:49:29.386Z,102939.25
2023-05-17T02:51:57.625Z,102937.66
2023-05-17T02:54:26.014Z,102935.28
2023-05-17T02:56:54.322Z,102933.59
2023-05-17T02:59:22.498Z,102933.59
2023-05-17T03:01:51.167Z,102936.09
2023-05-17T03:04:20.467Z,102938.06
2023-05-17T03:06:51.018Z,102937.38
2023-05-17T03:09:19.341Z,102923.28
2023-05-17T03:11:47.694Z,102925.22
2023-05-17T03:14:15.918Z,102928.00
2023-05-17T03:16:44.245Z,102927.16
2023-05-17T03:19:12.766Z,102927.28
2023-05-17T03:21:41.500Z,102924.63
2023-05-17T03:24:11.193Z,102922.94
2023-05-17T03:26:39.602Z,102921.88
2023-05-17T03:29:07.956Z,102914.03
2023-05-17T03:31:36.405Z,102911.53
2023-05-17T03:34:04.562Z,102915.84
2023-05-17T03:36:34.354Z,102916.00
2023-05-17T03:39:02.641Z,102915.16
2023-05-17T03:41:32.784Z,102920.69
2023-05-17T03:44:01.608Z,102922.38
2023-05-17T03:46:29.924Z,102919.72
2023-05-17T03:48:58.163Z,102922.50
2023-05-17T03:51:26.863Z,102917.34
2023-05-17T03:54:00.437Z,102919.03
2023-05-17T03:56:28.666Z,102921.91
2023-05-17T03:58:58.364Z,102922.88
2023-05-17T04:01:26.570Z,102919.78
2023-05-17T04:03:54.884Z,102917.53
2023-05-17T04:06:23.153Z,102922.22
2023-05-17T04:08:51.494Z,102920.31
2023-05-17T04:11:23.987Z,102922.34
2023-05-17T04:13:52.241Z,102931.13
2023-05-17T04:16:22.297Z,102915.00
2023-05-17T04:18:53.114Z,102922.50
2023-05-17T04:21:22.814Z,102919.84
2023-05-17T04:23:50.975Z,102913.59
2023-05-17T04:26:19.330Z,102918.59
2023-05-17T04:28:47.699Z,102909.97
2023-05-17T04:31:18.098Z,102915.00
2023-05-17T04:33:47.785Z,102913.22
2023-05-17T04:36:16.136Z,102912.47
2023-05-17T04:38:44.403Z,102912.38
2023-05-17T04:41:12.729Z,102914.75
2023-05-17T04:43:42.142Z,102919.78
2023-05-17T04:46:10.504Z,102915.47
2023-05-17T04:48:39.484Z,102915.34
2023-05-17T04:51:09.343Z,102919.91
2023-05-17T04:53:37.573Z,102925.91
2023-05-17T04:56:07.045Z,102930.38
2023-05-17T04:58:35.169Z,102928.41
2023-05-17T05:01:03.514Z,102925.66
2023-05-17T05:03:31.852Z,102930.69
2023-05-17T05:06:00.196Z,102935.13
2023-05-17T05:08:29.894Z,102940.19
2023-05-17T05:10:58.090Z,102937.00
2023-05-17T05:13:26.356Z,102942.19
2023-05-17T05:15:54.548Z,102936.63
2023-05-17T05:18:22.923Z,102939.13
2023-05-17T05:20:51.144Z,102942.50
2023-05-17T05:23:19.497Z,102944.91
2023-05-17T05:25:49.252Z,102945.63
2023-05-17T05:28:17.649Z,102946.44
2023-05-17T05:30:45.878Z,102948.72
2023-05-17T05:33:14.421Z,102954.00
2023-05-17T05:35:42.589Z,102950.53
2023-05-17T05:38:10.767Z,102950.66
2023-05-17T05:40:39.350Z,102960.25
2023-05-17T05:43:08.984Z,102965.16
2023-05-17T05:45:37.221Z,102966.69
2023-05-17T05:48:07.538Z,102978.47
2023-05-17T05:50:36.114Z,102974.72
2023-05-17T05:53:17.107Z,102981.19
2023-05-17T05:55:46.744Z,102986.22
2023-05-17T05:58:16.357Z,102983.88
2023-05-17T06:00:44.582Z,102979.56
2023-05-17T06:03:12.769Z,102979.78
2023-05-17T06:05:41.140Z,102979.25
2023-05-17T06:08:09.479Z,102996.19
2023-05-17T06:10:37.867Z,102994.81
2023-05-17T06:13:06.178Z,102989.81
2023-05-17T06:15:35.828Z,102994.72
2023-05-17T06:18:04.678Z,102990.38
2023-05-17T06:20:33.094Z,103005.44
2023-05-17T06:23:02.114Z,103001.41
2023-05-17T06:25:30.808Z,103004.50
2023-05-17T06:27:58.998Z,103013.91
2023-05-17T06:30:27.951Z,103007.28
2023-05-17T06:32:57.873Z,103008.22
2023-05-17T06:35:26.372Z,103012.16
2023-05-17T06:37:54.812Z,103005.53
2023-05-17T06:40:24.002Z,103006.28
2023-05-17T06:42:52.248Z,103001.81
2023-05-17T06:45:20.870Z,103011.50
2023-05-17T06:47:49.351Z,103010.69
2023-05-17T06:50:18.945Z,103017.41
2023-05-17T06:52:47.654Z,103011.44
2023-05-17T06:55:15.946Z,103005.16
2023-05-17T06:57:44.490Z,103020.25
2023-05-17T07:00:14.044Z,103021.94
2023-05-17T07:02:42.398Z,103016.06
2023-05-17T07:05:10.975Z,103021.53
2023-05-17T07:07:40.697Z,103014.13
2023-05-17T07:10:09.428Z,103026.94
2023-05-17T07:12:37.796Z,103018.06
2023-05-17T07:15:06.893Z,103018.97
2023-05-17T07:17:35.233Z,103014.97
2023-05-17T07:20:03.736Z,103002.00
2023-05-17T07:22:32.199Z,103012.72
2023-05-17T07:25:01.817Z,103013.94
2023-05-17T07:27:30.081Z,103013.09
2023-05-17T07:29:58.316Z,103014.16
2023-05-17T07:32:26.577Z,103011.38
2023-05-17T07:34:54.864Z,103014.31
2023-05-17T07:37:23.209Z,103011.13
2023-05-17T07:39:51.461Z,103014.38
2023-05-17T07:42:24.248Z,103013.19
2023-05-17T07:44:52.761Z,103009.28
2023-05-17T07:47:23.269Z,103003.59
2023-05-17T07:49:51.434Z,103016.34
2023-05-17T07:52:19.664Z,103010.31
2023-05-17T07:54:47.852Z,102999.53
2023-05-17T07:57:15.989Z,103004.94
2023-05-17T07:59:45.622Z,103003.38
2023-05-17T08:02:13.935Z,102996.31
2023-05-17T08:04:42.119Z,103000.88
2023-05-17T08:07:10.486Z,102999.28
2023-05-17T08:09:40.295Z,103000.66
2023-05-17T08:12:08.529Z,102998.66
2023-05-17T08:14:36.825Z,103002.72
2023-05-17T08:17:06.675Z,102999.75
2023-05-17T08:19:35.208Z,102995.81
2023-05-17T08:22:03.857Z,102992.81
2023-05-17T08:24:32.414Z,102998.50
2023-05-17T08:27:00.704Z,102989.28
2023-05-17T08:29:29.075Z,102986.69
2023-05-17T08:31:57.275Z,102990.63
2023-05-17T08:34:26.874Z,102997.38
2023-05-17T08:36:55.192Z,102986.75
2023-05-17T08:39:23.480Z,102992.16
2023-05-17T08:41:51.949Z,102990.38
2023-05-17T08:44:21.034Z,102977.94
2023-05-17T08:46:52.503Z,102980.97
2023-05-17T08:49:22.260Z,102978.16
2023-05-17T08:51:56.975Z,102979.19
2023-05-17T08:54:25.298Z,102982.38
2023-05-17T08:56:58.813Z,102985.41
2023-05-17T08:59:33.866Z,102984.28
2023-05-17T09:02:02.941Z,102985.94
2023-05-17T09:04:31.598Z,102989.28
2023-05-17T09:07:01.202Z,102994.13
2023-05-17T09:09:32.812Z,102991.38
2023-05-17T09:12:01.777Z,102992.22
2023-05-17T09:14:35.317Z,102991.91
2023-05-17T09:17:03.679Z,102993.28
2023-05-17T09:19:32.520Z,102988.97
2023-05-17T09:22:04.369Z,102988.31
2023-05-17T09:24:32.637Z,102990.31
2023-05-17T09:27:05.920Z,102984.28
2023-05-17T09:29:34.562Z,102989.06
2023-05-17T09:32:14.392Z,102988.53
2023-05-17T09:34:43.277Z,102985.56
2023-05-17T09:37:17.578Z,102991.69
2023-05-17T09:39:47.085Z,102987.72
2023-05-17T09:42:17.022Z,102992.50
2023-05-17T09:44:51.121Z,102995.19
2023-05-17T09:47:29.559Z,103002.69
2023-05-17T09:50:00.750Z,102997.53
2023-05-17T09:52:31.891Z,103001.13
2023-05-17T09:55:01.360Z,102992.16
2023-05-17T09:57:37.818Z,102990.19
2023-05-17T10:00:09.777Z,102991.41
2023-05-17T10:02:39.539Z,102990.06
2023-05-17T10:05:12.661Z,102997.09
2023-05-17T10:07:43.108Z,102995.97
2023-05-17T10:10:12.743Z,102992.97
2023-05-17T10:12:42.339Z,102989.81
2023-05-17T10:15:13.203Z,102994.16
2023-05-17T10:17:45.438Z,102992.03
2023-05-17T10:20:15.996Z,102986.84
2023-05-17T10:22:46.096Z,102984.00
2023-05-17T10:25:14.892Z,102973.97
2023-05-17T10:27:43.248Z,102973.13
2023-05-17T10:30:14.725Z,102976.81
2023-05-17T10:32:43.586Z,102972.44
2023-05-17T10:35:15.316Z,102976.25
2023-05-17T10:37:43.522Z,102972.75
2023-05-17T10:40:14.396Z,102965.03
2023-05-17T10:42:46.454Z,102963.00
2023-05-17T10:45:15.357Z,102965.41
2023-05-17T10:47:46.268Z,102960.72
2023-05-17T10:50:15.481Z,102964.75
2023-05-17T10:52:48.968Z,102963.28
2023-05-17T10:55:23.046Z,102973.63
2023-05-17T10:58:16.161Z,102970.97
2023-05-17T11:00:47.228Z,102969.94
2023-05-17T11:03:18.046Z,102966.91
2023-05-17T11:06:12.806Z,102972.13
2023-05-17T11:09:07.082Z,102959.13
2023-05-17T11:11:36.953Z,102957.78
2023-05-17T11:14:06.740Z,102957.31
2023-05-17T11:16:37.405Z,102955.47
2023-05-17T11:19:09.793Z,102956.13
2023-05-17T11:21:46.903Z,102955.81
2023-05-17T11:24:22.075Z,102953.09
2023-05-17T11:26:52.165Z,102952.13
2023-05-17T11:29:20.609Z,102953.13
2023-05-17T11:31:53.371Z,102955.28
2023-05-17T11:34:25.735Z,102953.13
2023-05-17T11:36:55.684Z,102953.78
2023-05-17T11:39:25.498Z,102955.25
2023-05-17T11:41:56.373Z,102956.44
2023-05-17T11:44:29.029Z,102956.28
2023-05-17T11:47:04.621Z,102952.25
2023-05-17T11:49:36.225Z,102953.44
2023-05-17T11:52:06.289Z,102954.09
2023-05-17T11:54:34.982Z,102948.28
2023-05-17T11:57:05.857Z,102939.59
2023-05-17T11:59:39.984Z,102939.03
2023-05-17T12:02:08.849Z,102941.06
2023-05-17T12:04:38.806Z,102941.25
2023-05-17T12:07:10.600Z,102935.06
2023-05-17T12:09:40.712Z,102932.88
2023-05-17T12:12:10.988Z,102935.06
2023-05-17T12:14:39.277Z,102934.41
2023-05-17T12:17:10.331Z,102942.03
2023-05-17T12:19:38.836Z,102929.72
2023-05-17T12:22:08.635Z,102938.56
2023-05-17T12:24:40.924Z,102922.34
2023-05-17T12:27:10.925Z,102919.53
2023-05-17T12:29:40.047Z,102923.38
2023-05-17T12:32:11.523Z,102934.03
2023-05-17T12:34:40.876Z,102930.69
2023-05-17T12:37:11.013Z,102929.22
2023-05-17T12:39:39.832Z,102916.50
2023-05-17T12:42:10.862Z,102923.38
2023-05-17T12:44:39.118Z,102920.38
2023-05-17T12:47:07.991Z,102917.00
2023-05-17T12:49:40.226Z,102916.69
2023-05-17T12:52:09.059Z,102915.53
2023-05-17T12:54:37.193Z,102915.38
2023-05-17T12:57:16.134Z,102914.06
2023-05-17T12:59:49.186Z,102910.38
2023-05-17T13:02:18.489Z,102917.91
2023-05-17T13:04:47.586Z,102905.56
2023-05-17T13:07:23.866Z,102903.53
2023-05-17T13:09:52.936Z,102908.38
2023-05-17T13:12:24.527Z,102906.31
2023-05-17T13:14:54.939Z,102906.94
2023-05-17T13:17:27.212Z,102908.25
2023-05-17T13:19:57.964Z,102907.88
2023-05-17T13:22:26.851Z,102907.06
2023-05-17T13:24:55.621Z,102895.22
2023-05-17T13:27:25.255Z,102896.28
2023-05-17T13:29:54.825Z,102909.53
2023-05-17T13:32:23.127Z,102898.72
2023-05-17T13:34:52.018Z,102896.38
2023-05-17T13:37:21.309Z,102894.03
2023-05-17T13:39:49.653Z,102894.03
2023-05-17T13:42:18.025Z,102896.00
2023-05-17T13:44:47.654Z,102887.06
2023-05-17T13:47:15.969Z,102885.88
2023-05-17T13:49:44.235Z,102881.53
2023-05-17T13:52:13.470Z,102873.50
2023-05-17T13:54:41.654Z,102875.69
2023-05-17T13:57:09.868Z,102874.38
2023-05-17T13:59:38.357Z,102869.84
2023-05-17T14:02:09.326Z,102872.50
2023-05-17T14:04:37.589Z,102861.69
2023-05-17T14:07:06.220Z,102854.63
2023-05-17T14:09:36.766Z,102846.09
2023-05-17T14:12:05.522Z,102846.22
2023-05-17T14:14:33.796Z,102848.47
2023-05-17T14:17:03.038Z,102841.44
2023-05-17T14:19:33.010Z,102834.31
2023-05-17T14:22:01.646Z,102829.72
2023-05-17T14:24:29.895Z,102833.13
2023-05-17T14:26:58.806Z,102829.31
2023-05-17T14:29:27.055Z,102832.50
2023-05-17T14:31:55.295Z,102818.78
2023-05-17T14:34:23.583Z,102820.06
2023-05-17T14:36:53.258Z,102817.09
2023-05-17T14:39:21.494Z,102825.47
2023-05-17T14:41:49.751Z,102820.44
2023-05-17T14:44:18.043Z,102829.72
2023-05-17T14:46:46.351Z,102822.06
2023-05-17T14:49:14.723Z,102811.84
2023-05-17T14:51:43.270Z,102811.31
2023-05-17T14:54:13.747Z,102809.28
2023-05-17T14:56:42.430Z,102805.00
2023-05-17T14:59:10.844Z,102802.00
2023-05-17T15:01:39.237Z,102807.34
2023-05-17T15:04:07.509Z,102794.88
2023-05-17T15:06:36.288Z,102786.69
2023-05-17T15:09:04.519Z,102788.34
2023-05-17T15:11:34.102Z,102793.03
2023-05-17T15:14:02.491Z,102782.38
2023-05-17T15:16:30.795Z,102776.63
2023-05-17T15:18:59.456Z,102763.53
2023-05-17T15:21:27.794Z,102758.78
2023-05-17T15:23:56.129Z,102764.41
2023-05-17T15:26:24.416Z,102760.41
2023-05-17T15:28:54.002Z,102764.03
2023-05-17T15:31:23.928Z,102760.78
2023-05-17T15:33:52.308Z,102755.22
2023-05-17T15:36:20.533Z,102755.00
2023-05-17T15:38:48.681Z,102756.19
2023-05-17T15:41:19.238Z,102756.00
2023-05-17T15:43:47.472Z,102743.94
2023-05-17T15:46:18.112Z,102753.97
2023-05-17T15:48:46.430Z,102753.22
2023-05-17T15:51:14.813Z,102742.91
2023-05-17T15:53:43.121Z,102741.09
2023-05-17T15:56:11.718Z,102729.44
2023-05-17T15:58:39.945Z,102738.13
2023-05-17T16:01:08.089Z,102729.22
2023-05-17T16:03:37.972Z,102738.75
2023-05-17T16:06:06.576Z,102732.75
2023-05-17T16:08:34.926Z,102729.22
2023-05-17T16:11:03.699Z,102727.75
2023-05-17T16:13:32.185Z,102725.06
2023-05-17T16:16:00.803Z,102726.09
2023-05-17T16:18:31.408Z,102724.16
2023-05-17T16:21:03.403Z,102722.63
2023-05-17T16:23:31.811Z,102714.41
2023-05-17T16:26:00.059Z,102700.88
2023-05-17T16:28:28.386Z,102712.59
2023-05-17T16:30:56.884Z,102714.06
2023-05-17T16:33:25.369Z,102716.53
2023-05-17T16:35:53.666Z,102714.00
2023-05-17T16:38:23.265Z,102716.97
2023-05-17T16:40:51.433Z,102723.63
2023-05-17T16:43:19.742Z,102725.44
2023-05-17T16:45:47.997Z,102721.22
2023-05-17T16:48:17.684Z,102725.78
2023-05-17T16:50:46.065Z,102719.69
2023-05-17T16:53:14.219Z,102718.13
2023-05-17T16:55:43.823Z,102720.63
2023-05-17T16:58:12.116Z,102708.25
2023-05-17T17:00:40.602Z,102710.28
2023-05-17T17:03:09.733Z,102705.09
2023-05-17T17:05:38.473Z,102706.50
2023-05-17T17:08:06.942Z,102714.53
2023-05-17T17:10:36.147Z,102713.59
2023-05-17T17:13:05.787Z,102713.28
2023-05-17T17:15:34.376Z,102718.56
2023-05-17T17:18:02.869Z,102714.28
2023-05-17T17:20:31.629Z,102708.94
2023-05-17T17:22:59.862Z,102717.09
2023-05-17T17:25:28.239Z,102707.59
2023-05-17T17:27:56.640Z,102718.63
2023-05-17T17:30:26.360Z,102713.63
2023-05-17T17:32:54.729Z,102714.00
2023-05-17T17:35:23.281Z,102714.34
2023-05-17T17:37:53.142Z,102715.56
2023-05-17T17:40:21.527Z,102714.69
2023-05-17T17:42:49.701Z,102713.03
2023-05-17T17:45:17.865Z,102719.22
2023-05-17T17:47:47.463Z,102718.78
2023-05-17T17:50:15.805Z,102718.56
2023-05-17T17:52:44.803Z,102713.41
2023-05-17T17:55:13.726Z,102710.06
2023-05-17T17:57:42.048Z,102713.28
2023-05-17T18:00:12.839Z,102711.81
2023-05-17T18:02:41.231Z,102710.97
2023-05-17T18:05:11.708Z,102710.31
2023-05-17T18:07:40.062Z,102713.50
2023-05-17T18:10:09.139Z,102705.88
2023-05-17T18:12:37.495Z,102710.88
2023-05-17T18:15:06.377Z,102705.53
2023-05-17T18:17:34.567Z,102704.91
2023-05-17T18:20:02.939Z,102705.09
2023-05-17T18:22:32.842Z,102699.25
2023-05-17T18:25:01.167Z,102698.78
2023-05-17T18:27:29.313Z,102705.94
2023-05-17T18:29:57.509Z,102696.63
2023-05-17T18:32:25.816Z,102702.97
2023-05-17T18:34:55.109Z,102703.16
2023-05-17T18:37:23.430Z,102708.84
2023-05-17T18:39:54.218Z,102713.38
2023-05-17T18:42:24.996Z,102709.56
2023-05-17T18:44:53.450Z,102711.22
2023-05-17T18:47:23.430Z,102715.56
2023-05-17T18:49:52.320Z,102713.91
2023-05-17T18:52:20.601Z,102717.09
2023-05-17T18:54:48.872Z,102706.78
2023-05-17T18:57:18.699Z,102715.97
2023-05-17T18:59:47.807Z,102714.63
2023-05-17T19:02:15.969Z,102720.13
2023-05-17T19:04:45.165Z,102720.13
2023-05-17T19:07:13.514Z,102717.63
2023-05-17T19:09:42.599Z,102718.81
2023-05-17T19:12:11.558Z,102717.50
2023-05-17T19:14:41.462Z,102720.50
2023-05-17T19:17:10.627Z,102730.22
2023-05-17T19:19:39.021Z,102721.88
2023-05-17T19:22:07.160Z,102725.91
2023-05-17T19:24:35.914Z,102721.25
2023-05-17T19:27:04.913Z,102718.91
2023-05-17T19:29:33.284Z,102718.91
2023-05-17T19:32:02.948Z,102719.44
2023-05-17T19:34:31.360Z,102720.63
2023-05-17T19:37:00.046Z,102721.78
2023-05-17T19:39:28.388Z,102725.78
2023-05-17T19:41:57.018Z,102719.97
2023-05-17T19:44:25.407Z,102726.47
2023-05-17T19:46:54.443Z,102725.81
2023-05-17T19:49:24.138Z,102718.81
2023-05-17T19:51:54.178Z,102728.97
2023-05-17T19:54:22.638Z,102728.47
2023-05-17T19:56:51.699Z,102732.97
2023-05-17T19:59:19.896Z,102726.31
2023-05-17T20:01:48.130Z,102729.97
2023-05-17T20:04:16.419Z,102721.94
2023-05-17T20:06:46.316Z,102720.59
2023-05-17T20:09:14.511Z,102722.78
2023-05-17T20:11:43.223Z,102732.09
2023-05-17T20:14:12.450Z,102730.09
2023-05-17T20:16:40.914Z,102727.75
2023-05-17T20:19:09.180Z,102729.91
2023-05-17T20:21:37.434Z,102731.56
2023-05-17T20:24:07.903Z,102741.25
2023-05-17T20:26:37.296Z,102738.25
2023-05-17T20:29:07.378Z,102742.56
2023-05-17T20:31:36.826Z,102746.22
2023-05-17T20:34:06.560Z,102738.72
2023-05-17T20:36:34.986Z,102745.72
2023-05-17T20:39:03.566Z,102749.69
2023-05-17T20:41:33.198Z,102748.19
2023-05-17T20:44:01.737Z,102745.03
2023-05-17T20:46:30.996Z,102743.34
2023-05-17T20:49:01.127Z,102752.50
2023-05-17T20:51:29.505Z,102749.31
2023-05-17T20:53:57.878Z,102753.16
2023-05-17T20:56:26.100Z,102761.63
2023-05-17T20:58:55.801Z,102765.28
2023-05-17T21:01:24.180Z,102761.78
2023-05-17T21:03:52.759Z,102765.25
2023-05-17T21:06:22.151Z,102756.75
2023-05-17T21:08:50.391Z,102760.72
2023-05-17T21:11:21.434Z,102763.56
2023-05-17T21:13:49.862Z,102768.34
2023-05-17T21:16:19.667Z,102771.31
2023-05-17T21:18:48.024Z,102771.81
2023-05-17T21:21:16.239Z,102782.63
2023-05-17T21:23:44.392Z,102778.56
2023-05-17T21:26:12.680Z,102784.91
2023-05-17T21:28:40.894Z,102788.56
2023-05-17T21:31:09.428Z,102785.38
2023-05-17T21:33:39.009Z,102789.16
2023-05-17T21:36:07.691Z,102785.00
2023-05-17T21:38:37.282Z,102796.13
2023-05-17T21:41:05.495Z,102798.41
2023-05-17T21:43:33.714Z,102795.94
2023-05-17T21:46:02.085Z,102802.09
2023-05-17T21:48:30.521Z,102799.41
2023-05-17T21:51:00.190Z,102802.09
2023-05-17T21:53:28.371Z,102798.72
2023-05-17T21:56:02.492Z,102803.00
2023-05-17T21:58:31.846Z,102798.81
2023-05-17T22:01:00.341Z,102799.28
2023-05-17T22:03:28.658Z,102795.13
2023-05-17T22:05:57.032Z,102806.59
2023-05-17T22:08:26.867Z,102796.09
2023-05-17T22:10:55.841Z,102803.72
2023-05-17T22:13:27.047Z,102801.22
2023-05-17T22:15:57.810Z,102795.22
2023-05-17T22:18:27.573Z,102798.19
2023-05-17T22:20:59.274Z,102796.53
2023-05-17T22:23:29.241Z,102793.16
2023-05-17T22:26:00.452Z,102786.47
2023-05-17T22:28:29.030Z,102787.09
2023-05-17T22:30:57.228Z,102793.59
2023-05-17T22:33:25.518Z,102793.03
2023-05-17T22:35:54.329Z,102795.34
2023-05-17T22:38:23.831Z,102792.28
2023-05-17T22:40:53.402Z,102792.59
2023-05-17T22:43:22.460Z,102792.06
2023-05-17T22:45:51.242Z,102797.69
2023-05-17T22:48:21.443Z,102803.13
2023-05-17T22:50:50.657Z,102794.63
2023-05-17T22:53:19.272Z,102797.75
2023-05-17T22:55:49.207Z,102802.63
2023-05-17T22:58:19.258Z,102801.28
2023-05-17T23:00:51.081Z,102802.41
2023-05-17T23:03:19.745Z,102800.03
2023-05-17T23:05:48.153Z,102799.22
2023-05-17T23:08:16.661Z,102793.91
2023-05-17T23:10:45.911Z,102798.53
2023-05-17T23:13:14.247Z,102802.03
2023-05-17T23:15:46.994Z,102801.50
2023-05-17T23:18:16.127Z,102799.00
2023-05-17T23:20:44.272Z,102800.81
2023-05-17T23:23:13.441Z,102796.78
2023-05-17T23:25:42.020Z,102806.03
2023-05-17T23:28:10.168Z,102807.03
2023-05-17T23:30:40.054Z,102806.47
2023-05-17T23:33:09.986Z,102811.63
2023-05-17T23:35:38.171Z,102808.59
2023-05-17T23:38:07.336Z,102807.59
2023-05-17T23:40:37.274Z,102813.59
2023-05-17T23:43:05.972Z,102812.91
2023-05-17T23:45:34.438Z,102813.06
2023-05-17T23:48:02.913Z,102825.50
2023-05-17T23:50:32.701Z,102823.41
2023-05-17T23:53:03.855Z,102820.88
2023-05-17T23:55:32.183Z,102820.88
2023-05-17T23:58:00.427Z,102820.03
